sensor_id;sensor_type;location;lat;lon;timestamp;P1;durP1;ratioP1;P2;durP2;ratioP2
64560;SDS011;50960;46.838;16.838;2023-03-01T14:42:34;23.60;;;17.67;;
64560;SDS011;50960;46.838;16.838;2023-03-01T14:45:02;22.80;;;17.00;;
64560;SDS011;50960;46.838;16.838;2023-03-01T14:47:30;23.35;;;18.73;;
64560;SDS011;50960;46.838;16.838;2023-03-01T14:49:59;20.65;;;17.48;;
64560;SDS011;50960;46.838;16.838;2023-03-01T14:52:40;20.55;;;17.35;;
64560;SDS011;50960;46.838;16.838;2023-03-01T14:55:16;23.65;;;17.60;;
64560;SDS011;50960;46.838;16.838;2023-03-01T14:57:49;24.27;;;17.98;;
64560;SDS011;50960;46.838;16.838;2023-03-01T15:02:46;20.45;;;17.30;;
64560;SDS011;50960;46.838;16.838;2023-03-01T15:05:15;25.15;;;18.77;;
64560;SDS011;50960;46.838;16.838;2023-03-01T15:07:48;23.27;;;18.00;;
64560;SDS011;50960;46.838;16.838;2023-03-01T15:10:17;22.30;;;17.90;;
64560;SDS011;50960;46.838;16.838;2023-03-01T15:12:50;22.48;;;16.75;;
64560;SDS011;50960;46.838;16.838;2023-03-01T15:17:54;18.75;;;16.40;;
64560;SDS011;50960;46.838;16.838;2023-03-01T15:20:25;17.73;;;15.63;;
64560;SDS011;50960;46.838;16.838;2023-03-01T15:22:55;20.75;;;15.82;;
64560;SDS011;50960;46.838;16.838;2023-03-01T15:25:24;20.05;;;16.38;;
64560;SDS011;50960;46.838;16.838;2023-03-01T15:27:55;18.63;;;15.32;;
64560;SDS011;50960;46.838;16.838;2023-03-01T15:30:27;18.80;;;14.88;;
64560;SDS011;50960;46.838;16.838;2023-03-01T15:35:48;19.25;;;16.27;;
64560;SDS011;50960;46.838;16.838;2023-03-01T15:41:00;23.92;;;17.25;;
64560;SDS011;50960;46.838;16.838;2023-03-01T15:43:42;20.20;;;16.00;;
64560;SDS011;50960;46.838;16.838;2023-03-01T15:46:20;21.40;;;15.85;;
64560;SDS011;50960;46.838;16.838;2023-03-01T15:48:51;20.75;;;16.83;;
64560;SDS011;50960;46.838;16.838;2023-03-01T15:51:23;19.67;;;16.80;;
64560;SDS011;50960;46.838;16.838;2023-03-01T15:53:55;20.98;;;17.58;;
64560;SDS011;50960;46.838;16.838;2023-03-01T15:56:28;19.83;;;17.27;;
64560;SDS011;50960;46.838;16.838;2023-03-01T15:58:59;22.55;;;17.83;;
64560;SDS011;50960;46.838;16.838;2023-03-01T16:01:26;24.08;;;18.67;;
64560;SDS011;50960;46.838;16.838;2023-03-01T16:03:52;22.13;;;18.98;;
64560;SDS011;50960;46.838;16.838;2023-03-01T16:06:19;26.63;;;20.67;;
64560;SDS011;50960;46.838;16.838;2023-03-01T16:08:46;29.05;;;22.08;;
64560;SDS011;50960;46.838;16.838;2023-03-01T16:11:16;32.42;;;26.30;;
64560;SDS011;50960;46.838;16.838;2023-03-01T16:13:44;33.00;;;22.80;;
64560;SDS011;50960;46.838;16.838;2023-03-01T16:16:11;26.10;;;20.33;;
64560;SDS011;50960;46.838;16.838;2023-03-01T16:18:42;26.38;;;21.52;;
64560;SDS011;50960;46.838;16.838;2023-03-01T16:21:18;26.35;;;20.48;;
64560;SDS011;50960;46.838;16.838;2023-03-01T16:23:46;22.90;;;18.88;;
64560;SDS011;50960;46.838;16.838;2023-03-01T16:26:13;26.52;;;21.55;;
64560;SDS011;50960;46.838;16.838;2023-03-01T16:28:40;25.20;;;19.48;;
64560;SDS011;50960;46.838;16.838;2023-03-01T16:31:08;32.22;;;21.20;;
64560;SDS011;50960;46.838;16.838;2023-03-01T16:33:35;33.90;;;22.65;;
64560;SDS011;50960;46.838;16.838;2023-03-01T16:36:09;28.58;;;20.13;;
64560;SDS011;50960;46.838;16.838;2023-03-01T16:38:37;26.67;;;20.02;;
64560;SDS011;50960;46.838;16.838;2023-03-01T16:41:04;23.02;;;18.88;;
64560;SDS011;50960;46.838;16.838;2023-03-01T16:43:31;25.45;;;18.98;;
64560;SDS011;50960;46.838;16.838;2023-03-01T16:45:58;23.55;;;18.85;;
64560;SDS011;50960;46.838;16.838;2023-03-01T16:48:24;23.33;;;18.65;;
64560;SDS011;50960;46.838;16.838;2023-03-01T16:50:58;22.42;;;18.23;;
64560;SDS011;50960;46.838;16.838;2023-03-01T16:53:25;24.13;;;19.23;;
64560;SDS011;50960;46.838;16.838;2023-03-01T16:55:56;25.73;;;19.92;;
64560;SDS011;50960;46.838;16.838;2023-03-01T16:58:23;28.70;;;20.55;;
64560;SDS011;50960;46.838;16.838;2023-03-01T17:00:51;25.10;;;20.02;;
64560;SDS011;50960;46.838;16.838;2023-03-01T17:03:19;23.95;;;19.33;;
64560;SDS011;50960;46.838;16.838;2023-03-01T17:05:47;22.67;;;18.35;;
64560;SDS011;50960;46.838;16.838;2023-03-01T17:08:13;20.83;;;16.98;;
64560;SDS011;50960;46.838;16.838;2023-03-01T17:10:40;20.80;;;17.48;;
64560;SDS011;50960;46.838;16.838;2023-03-01T17:13:10;23.50;;;18.40;;
64560;SDS011;50960;46.838;16.838;2023-03-01T17:15:38;21.92;;;17.73;;
64560;SDS011;50960;46.838;16.838;2023-03-01T17:18:06;24.98;;;18.67;;
64560;SDS011;50960;46.838;16.838;2023-03-01T17:20:33;23.55;;;18.70;;
64560;SDS011;50960;46.838;16.838;2023-03-01T17:23:00;24.80;;;19.40;;
64560;SDS011;50960;46.838;16.838;2023-03-01T17:25:28;23.83;;;19.67;;
64560;SDS011;50960;46.838;16.838;2023-03-01T17:27:54;27.98;;;21.42;;
64560;SDS011;50960;46.838;16.838;2023-03-01T17:30:21;24.00;;;18.98;;
64560;SDS011;50960;46.838;16.838;2023-03-01T17:32:47;29.95;;;22.58;;
64560;SDS011;50960;46.838;16.838;2023-03-01T17:35:13;25.98;;;20.98;;
64560;SDS011;50960;46.838;16.838;2023-03-01T17:37:40;34.05;;;26.33;;
64560;SDS011;50960;46.838;16.838;2023-03-01T17:40:10;39.08;;;30.13;;
64560;SDS011;50960;46.838;16.838;2023-03-01T17:42:37;36.83;;;29.00;;
64560;SDS011;50960;46.838;16.838;2023-03-01T17:45:04;45.53;;;32.72;;
64560;SDS011;50960;46.838;16.838;2023-03-01T17:47:31;33.33;;;25.08;;
64560;SDS011;50960;46.838;16.838;2023-03-01T17:49:57;29.60;;;23.42;;
64560;SDS011;50960;46.838;16.838;2023-03-01T17:52:24;20.48;;;18.15;;
64560;SDS011;50960;46.838;16.838;2023-03-01T17:54:51;25.55;;;20.33;;
64560;SDS011;50960;46.838;16.838;2023-03-01T17:57:17;24.75;;;17.75;;
64560;SDS011;50960;46.838;16.838;2023-03-01T17:59:43;20.48;;;18.02;;
64560;SDS011;50960;46.838;16.838;2023-03-01T18:02:13;22.98;;;18.67;;
64560;SDS011;50960;46.838;16.838;2023-03-01T18:04:39;28.95;;;20.10;;
64560;SDS011;50960;46.838;16.838;2023-03-01T18:07:06;25.95;;;20.40;;
64560;SDS011;50960;46.838;16.838;2023-03-01T18:09:32;26.20;;;20.55;;
64560;SDS011;50960;46.838;16.838;2023-03-01T18:11:58;26.35;;;21.65;;
64560;SDS011;50960;46.838;16.838;2023-03-01T18:14:25;24.27;;;19.20;;
64560;SDS011;50960;46.838;16.838;2023-03-01T18:16:54;22.95;;;18.75;;
64560;SDS011;50960;46.838;16.838;2023-03-01T18:19:20;24.13;;;20.10;;
64560;SDS011;50960;46.838;16.838;2023-03-01T18:21:46;24.05;;;18.90;;
64560;SDS011;50960;46.838;16.838;2023-03-01T18:24:13;22.42;;;18.90;;
64560;SDS011;50960;46.838;16.838;2023-03-01T18:26:42;23.42;;;19.65;;
64560;SDS011;50960;46.838;16.838;2023-03-01T18:29:09;22.58;;;18.58;;
64560;SDS011;50960;46.838;16.838;2023-03-01T18:31:35;24.40;;;18.13;;
64560;SDS011;50960;46.838;16.838;2023-03-01T18:34:02;20.63;;;17.13;;
64560;SDS011;50960;46.838;16.838;2023-03-01T18:36:31;20.08;;;17.23;;
64560;SDS011;50960;46.838;16.838;2023-03-01T18:39:04;20.85;;;17.05;;
64560;SDS011;50960;46.838;16.838;2023-03-01T18:41:32;22.50;;;18.50;;
64560;SDS011;50960;46.838;16.838;2023-03-01T18:43:59;19.75;;;16.85;;
64560;SDS011;50960;46.838;16.838;2023-03-01T18:46:26;20.98;;;18.65;;
64560;SDS011;50960;46.838;16.838;2023-03-01T18:48:53;24.27;;;18.73;;
64560;SDS011;50960;46.838;16.838;2023-03-01T18:51:21;24.45;;;19.33;;
64560;SDS011;50960;46.838;16.838;2023-03-01T18:53:48;20.92;;;18.05;;
64560;SDS011;50960;46.838;16.838;2023-03-01T18:56:15;22.80;;;18.13;;
64560;SDS011;50960;46.838;16.838;2023-03-01T18:58:41;21.73;;;17.55;;
64560;SDS011;50960;46.838;16.838;2023-03-01T19:01:27;19.98;;;17.17;;
64560;SDS011;50960;46.838;16.838;2023-03-01T19:03:56;20.20;;;16.83;;
64560;SDS011;50960;46.838;16.838;2023-03-01T19:06:23;20.10;;;17.75;;
64560;SDS011;50960;46.838;16.838;2023-03-01T19:08:53;19.60;;;16.08;;
64560;SDS011;50960;46.838;16.838;2023-03-01T19:11:19;17.48;;;15.50;;
64560;SDS011;50960;46.838;16.838;2023-03-01T19:13:47;18.80;;;16.23;;
64560;SDS011;50960;46.838;16.838;2023-03-01T19:16:17;19.40;;;16.17;;
64560;SDS011;50960;46.838;16.838;2023-03-01T19:18:45;17.95;;;15.63;;
64560;SDS011;50960;46.838;16.838;2023-03-01T19:21:17;18.83;;;16.00;;
64560;SDS011;50960;46.838;16.838;2023-03-01T19:23:44;21.20;;;15.98;;
64560;SDS011;50960;46.838;16.838;2023-03-01T19:26:14;25.55;;;16.73;;
64560;SDS011;50960;46.838;16.838;2023-03-01T19:28:41;18.85;;;16.20;;
64560;SDS011;50960;46.838;16.838;2023-03-01T19:31:10;18.92;;;16.27;;
64560;SDS011;50960;46.838;16.838;2023-03-01T19:33:45;31.80;;;24.67;;
64560;SDS011;50960;46.838;16.838;2023-03-01T19:36:12;20.92;;;16.63;;
64560;SDS011;50960;46.838;16.838;2023-03-01T19:38:40;20.58;;;16.45;;
64560;SDS011;50960;46.838;16.838;2023-03-01T19:41:11;21.17;;;17.10;;
64560;SDS011;50960;46.838;16.838;2023-03-01T19:43:43;18.75;;;16.38;;
64560;SDS011;50960;46.838;16.838;2023-03-01T19:46:10;17.70;;;15.73;;
64560;SDS011;50960;46.838;16.838;2023-03-01T19:48:38;19.27;;;16.48;;
64560;SDS011;50960;46.838;16.838;2023-03-01T19:51:05;19.95;;;16.05;;
64560;SDS011;50960;46.838;16.838;2023-03-01T19:53:32;17.48;;;15.57;;
64560;SDS011;50960;46.838;16.838;2023-03-01T19:55:59;19.48;;;16.08;;
64560;SDS011;50960;46.838;16.838;2023-03-01T19:58:28;18.15;;;16.25;;
64560;SDS011;50960;46.838;16.838;2023-03-01T20:00:55;37.97;;;30.98;;
64560;SDS011;50960;46.838;16.838;2023-03-01T20:03:32;20.75;;;17.20;;
64560;SDS011;50960;46.838;16.838;2023-03-01T20:05:59;19.98;;;15.85;;
64560;SDS011;50960;46.838;16.838;2023-03-01T20:08:34;19.98;;;15.20;;
64560;SDS011;50960;46.838;16.838;2023-03-01T20:11:01;23.02;;;17.45;;
64560;SDS011;50960;46.838;16.838;2023-03-01T20:13:28;22.50;;;18.20;;
64560;SDS011;50960;46.838;16.838;2023-03-01T20:15:54;22.58;;;18.13;;
64560;SDS011;50960;46.838;16.838;2023-03-01T20:18:21;18.98;;;16.63;;
64560;SDS011;50960;46.838;16.838;2023-03-01T20:20:48;20.13;;;16.33;;
64560;SDS011;50960;46.838;16.838;2023-03-01T20:23:15;19.23;;;16.95;;
64560;SDS011;50960;46.838;16.838;2023-03-01T20:25:42;21.73;;;16.63;;
64560;SDS011;50960;46.838;16.838;2023-03-01T20:28:09;20.58;;;17.50;;
64560;SDS011;50960;46.838;16.838;2023-03-01T20:30:36;27.00;;;21.17;;
64560;SDS011;50960;46.838;16.838;2023-03-01T20:33:06;22.42;;;18.40;;
64560;SDS011;50960;46.838;16.838;2023-03-01T20:35:32;20.75;;;17.65;;
64560;SDS011;50960;46.838;16.838;2023-03-01T20:38:01;19.55;;;17.40;;
64560;SDS011;50960;46.838;16.838;2023-03-01T20:40:28;21.92;;;17.92;;
64560;SDS011;50960;46.838;16.838;2023-03-01T20:42:56;21.20;;;17.85;;
64560;SDS011;50960;46.838;16.838;2023-03-01T20:45:23;20.60;;;17.38;;
64560;SDS011;50960;46.838;16.838;2023-03-01T20:47:50;20.25;;;17.20;;
64560;SDS011;50960;46.838;16.838;2023-03-01T20:50:17;20.73;;;16.40;;
64560;SDS011;50960;46.838;16.838;2023-03-01T20:52:45;20.30;;;16.98;;
64560;SDS011;50960;46.838;16.838;2023-03-01T20:55:12;21.85;;;18.05;;
64560;SDS011;50960;46.838;16.838;2023-03-01T20:57:39;23.45;;;18.17;;
64560;SDS011;50960;46.838;16.838;2023-03-01T21:00:05;21.00;;;16.65;;
64560;SDS011;50960;46.838;16.838;2023-03-01T21:02:33;19.58;;;16.55;;
64560;SDS011;50960;46.838;16.838;2023-03-01T21:04:59;19.50;;;17.02;;
64560;SDS011;50960;46.838;16.838;2023-03-01T21:07:25;21.67;;;18.17;;
64560;SDS011;50960;46.838;16.838;2023-03-01T21:09:52;19.83;;;17.73;;
64560;SDS011;50960;46.838;16.838;2023-03-01T21:12:18;20.42;;;17.08;;
64560;SDS011;50960;46.838;16.838;2023-03-01T21:14:45;18.38;;;16.38;;
64560;SDS011;50960;46.838;16.838;2023-03-01T21:17:13;21.17;;;17.40;;
64560;SDS011;50960;46.838;16.838;2023-03-01T21:19:41;19.48;;;16.17;;
64560;SDS011;50960;46.838;16.838;2023-03-01T21:22:12;20.88;;;17.55;;
64560;SDS011;50960;46.838;16.838;2023-03-01T21:24:39;19.42;;;15.90;;
64560;SDS011;50960;46.838;16.838;2023-03-01T21:27:06;18.48;;;16.40;;
64560;SDS011;50960;46.838;16.838;2023-03-01T21:29:41;20.50;;;17.02;;
64560;SDS011;50960;46.838;16.838;2023-03-01T21:32:09;19.27;;;16.70;;
64560;SDS011;50960;46.838;16.838;2023-03-01T21:34:36;22.95;;;17.38;;
64560;SDS011;50960;46.838;16.838;2023-03-01T21:37:04;20.10;;;16.90;;
64560;SDS011;50960;46.838;16.838;2023-03-01T21:39:31;20.45;;;16.40;;
64560;SDS011;50960;46.838;16.838;2023-03-01T21:41:58;20.65;;;17.45;;
64560;SDS011;50960;46.838;16.838;2023-03-01T21:44:26;21.40;;;17.00;;
64560;SDS011;50960;46.838;16.838;2023-03-01T21:46:54;19.67;;;16.67;;
64560;SDS011;50960;46.838;16.838;2023-03-01T21:49:25;21.90;;;18.02;;
64560;SDS011;50960;46.838;16.838;2023-03-01T21:51:52;18.48;;;16.50;;
64560;SDS011;50960;46.838;16.838;2023-03-01T21:54:19;18.63;;;16.63;;
64560;SDS011;50960;46.838;16.838;2023-03-01T21:56:47;19.55;;;17.42;;
64560;SDS011;50960;46.838;16.838;2023-03-01T21:59:15;21.45;;;17.17;;
64560;SDS011;50960;46.838;16.838;2023-03-01T22:01:42;19.80;;;17.65;;
64560;SDS011;50960;46.838;16.838;2023-03-01T22:04:09;21.05;;;18.27;;
64560;SDS011;50960;46.838;16.838;2023-03-01T22:06:38;22.13;;;18.35;;
